Time;durP1;ratioP1;P1;durP2;ratioP2;P2;SDS_P1;SDS_P2;PMS_P1;PMS_P2;Temp;Humidity;BMP_temperature;BMP_pressure;BME280_temperature;BME280_humidity;BME280_pressure;Samples;Min_cycle;Max_cycle;Signal;HPM_P1;HPM_P2
2021/05/30 00:00:05;;;;;;;4.65;2.60;;;;;;;;;;345118;28;1286;-64
2021/05/30 00:00:18;;;;;;;4.38;2.67;;;;;;;;;;346794;28;1098;-63
2021/05/30 00:00:30;;;;;;;4.47;2.60;;;;;;;;;;346709;28;1138;-63
2021/05/30 00:00:42;;;;;;;3.67;2.47;;;;;;;;;;346610;28;1757;-64
2021/05/30 00:00:54;;;;;;;3.50;2.35;;;;;;;;;;346540;28;1805;-63
2021/05/30 00:01:07;;;;;;;3.20;2.50;;;;;;;;;;348090;28;1069;-63
2021/05/30 00:01:19;;;;;;;3.33;2.47;;;;;;;;;;347960;28;1149;-63
2021/05/30 00:01:31;;;;;;;3.65;2.50;;;;;;;;;;348044;28;1091;-63
2021/05/30 00:01:43;;;;;;;3.50;2.50;;;;;;;;;;347998;28;1094;-62
2021/05/30 00:01:55;;;;;;;3.50;2.45;;;;;;;;;;348119;28;1105;-63
2021/05/30 00:02:08;;;;;;;3.42;2.58;;;;;;;;;;347963;28;1085;-63
2021/05/30 00:02:21;;;;;;;3.40;2.50;;;;;;;;;;347869;28;1199;-62
2021/05/30 00:02:34;;;;;;;3.53;2.50;;;;;;;;;;345605;28;1189;-63
2021/05/30 00:02:46;;;;;;;3.85;2.72;;;;;;;;;;345346;28;1161;-63
2021/05/30 00:02:58;;;;;;;4.47;2.75;;;;;;;;;;343925;28;1082;-63
2021/05/30 00:03:10;;;;;;;4.25;2.53;;;;;;;;;;343969;28;1091;-63
2021/05/30 00:03:22;;;;;;;4.05;2.40;;;;;;;;;;343719;28;1113;-63
2021/05/30 00:03:34;;;;;;;3.53;2.47;;;;;;;;;;344034;28;1084;-62
2021/05/30 00:03:47;;;;;;;3.65;2.40;;;;;;;;;;343729;28;1085;-63
2021/05/30 00:03:59;;;;;;;4.07;2.58;;;;;;;;;;343816;28;1228;-63
2021/05/30 00:04:11;;;;;;;3.67;2.55;;;;;;;;;;343845;28;1042;-63
2021/05/30 00:04:23;;;;;;;3.33;2.60;;;;;;;;;;344299;28;1066;-63
2021/05/30 00:04:36;;;;;;;3.22;2.58;;;;;;;;;;342656;28;1267;-62
2021/05/30 00:04:48;;;;;;;3.83;2.63;;;;;;;;;;342569;28;1164;-62
2021/05/30 00:05:00;;;;;;;4.15;2.60;;;;;;;;;;343354;28;1198;-62
2021/05/30 00:05:13;;;;;;;4.47;2.47;;;;;;;;;;343851;28;1067;-63
2021/05/30 00:05:25;;;;;;;4.80;2.42;;;;;;;;;;343903;28;1181;-63
2021/05/30 00:05:37;;;;;;;3.88;2.50;;;;;;;;;;343900;28;1164;-63
2021/05/30 00:05:49;;;;;;;4.10;2.58;;;;;;;;;;342632;28;1113;-62
2021/05/30 00:06:02;;;;;;;5.30;2.70;;;;;;;;;;342696;28;1080;-63
2021/05/30 00:06:14;;;;;;;5.13;2.67;;;;;;;;;;342666;28;1158;-62
2021/05/30 00:06:29;;;;;;;4.18;2.50;;;;;;;;;;342626;28;1324;-62
2021/05/30 00:06:41;;;;;;;4.43;2.50;;;;;;;;;;342333;28;39837;-62
2021/05/30 00:06:53;;;;;;;3.78;2.53;;;;;;;;;;343926;28;1087;-63
2021/05/30 00:07:07;;;;;;;3.20;2.50;;;;;;;;;;343793;28;984;-63
2021/05/30 00:07:22;;;;;;;3.38;2.65;;;;;;;;;;343952;28;1773;-63
2021/05/30 00:07:34;;;;;;;3.35;2.67;;;;;;;;;;342588;28;39724;-63
2021/05/30 00:07:47;;;;;;;3.20;2.50;;;;;;;;;;343925;28;1040;-63
2021/05/30 00:07:59;;;;;;;3.75;2.50;;;;;;;;;;345272;28;1070;-62
2021/05/30 00:08:12;;;;;;;4.20;2.60;;;;;;;;;;345200;28;1118;-62
2021/05/30 00:08:26;;;;;;;4.25;2.60;;;;;;;;;;342946;28;63985;-62
2021/05/30 00:08:38;;;;;;;4.18;2.50;;;;;;;;;;345372;28;1621;-63
2021/05/30 00:08:54;;;;;;;4.95;2.50;;;;;;;;;;345227;28;1173;-62
2021/05/30 00:09:06;;;;;;;4.45;2.50;;;;;;;;;;343840;28;41129;-62
2021/05/30 00:09:19;;;;;;;4.03;2.63;;;;;;;;;;345282;28;1103;-63
2021/05/30 00:09:31;;;;;;;3.35;2.55;;;;;;;;;;345327;28;1287;-63
2021/05/30 00:09:46;;;;;;;4.45;2.40;;;;;;;;;;345379;28;1019;-63
2021/05/30 00:09:58;;;;;;;4.95;2.58;;;;;;;;;;343893;28;39721;-63
2021/05/30 00:10:11;;;;;;;5.20;2.80;;;;;;;;;;345223;28;1297;-62
2021/05/30 00:10:23;;;;;;;4.90;2.90;;;;;;;;;;345355;28;1524;-63
2021/05/30 00:10:35;;;;;;;3.70;2.92;;;;;;;;;;345304;28;1218;-62
2021/05/30 00:10:48;;;;;;;3.83;2.88;;;;;;;;;;344001;28;1089;-66
2021/05/30 00:11:00;;;;;;;4.20;2.80;;;;;;;;;;343696;28;1134;-63
2021/05/30 00:11:12;;;;;;;5.13;2.80;;;;;;;;;;343897;28;1200;-62
2021/05/30 00:11:24;;;;;;;5.18;2.90;;;;;;;;;;344029;28;1679;-63
2021/05/30 00:11:57;;;;;;;4.82;2.70;;;;;;;;;;341860;28;62394;-62
2021/05/30 00:12:10;;;;;;;3.58;2.58;;;;;;;;;;343663;28;1068;-62
2021/05/30 00:12:22;;;;;;;4.00;2.50;;;;;;;;;;343759;28;1078;-62
2021/05/30 00:12:35;;;;;;;4.10;2.70;;;;;;;;;;344079;28;1138;-62
2021/05/30 00:12:48;;;;;;;4.45;2.80;;;;;;;;;;344155;28;16929;-62
2021/05/30 00:13:00;;;;;;;4.10;2.70;;;;;;;;;;345406;28;1476;-62
2021/05/30 00:13:12;;;;;;;4.18;2.70;;;;;;;;;;345093;28;1023;-63
2021/05/30 00:13:24;;;;;;;3.47;2.50;;;;;;;;;;345375;28;1132;-62
2021/05/30 00:13:36;;;;;;;3.20;2.40;;;;;;;;;;345229;28;1046;-62
2021/05/30 00:13:48;;;;;;;3.33;2.40;;;;;;;;;;345308;28;1087;-62
2021/05/30 00:14:01;;;;;;;3.38;2.50;;;;;;;;;;345082;28;1071;-62
2021/05/30 00:14:13;;;;;;;3.25;2.70;;;;;;;;;;345322;28;1098;-62
2021/05/30 00:14:25;;;;;;;4.07;2.92;;;;;;;;;;345195;28;988;-63
2021/05/30 00:14:37;;;;;;;4.63;3.25;;;;;;;;;;345313;28;1168;-62
2021/05/30 00:14:50;;;;;;;4.50;3.67;;;;;;;;;;345225;28;1199;-62
2021/05/30 00:15:03;;;;;;;4.47;3.90;;;;;;;;;;345339;28;979;-63
2021/05/30 00:15:15;;;;;;;5.18;3.53;;;;;;;;;;345197;28;1280;-62
2021/05/30 00:15:27;;;;;;;5.28;3.40;;;;;;;;;;345419;28;1212;-63
2021/05/30 00:15:40;;;;;;;5.68;3.55;;;;;;;;;;345280;28;1050;-63
2021/05/30 00:15:52;;;;;;;5.35;3.50;;;;;;;;;;345299;28;1081;-62
2021/05/30 00:16:04;;;;;;;6.20;3.48;;;;;;;;;;345120;28;1192;-63
2021/05/30 00:16:16;;;;;;;5.50;3.60;;;;;;;;;;345363;28;1073;-62
2021/05/30 00:16:29;;;;;;;5.50;3.80;;;;;;;;;;345312;28;1015;-62
2021/05/30 00:16:41;;;;;;;5.38;3.80;;;;;;;;;;345348;28;1545;-62
2021/05/30 00:16:53;;;;;;;4.82;3.78;;;;;;;;;;345258;28;1061;-62
2021/05/30 00:17:05;;;;;;;4.10;3.42;;;;;;;;;;345341;28;1078;-62
2021/05/30 00:17:18;;;;;;;4.07;3.40;;;;;;;;;;345167;28;1217;-62
2021/05/30 00:17:30;;;;;;;4.38;3.53;;;;;;;;;;345363;28;976;-63
2021/05/30 00:17:42;;;;;;;5.90;4.40;;;;;;;;;;345314;28;1166;-64
2021/05/30 00:17:56;;;;;;;8.07;5.45;;;;;;;;;;345319;28;1149;-63
2021/05/30 00:18:08;;;;;;;8.68;5.68;;;;;;;;;;345324;28;1075;-62
2021/05/30 00:18:20;;;;;;;9.88;5.47;;;;;;;;;;345719;28;1781;-62
2021/05/30 00:18:32;;;;;;;9.68;5.35;;;;;;;;;;345461;28;2124;-62
2021/05/30 00:18:44;;;;;;;9.00;4.85;;;;;;;;;;345341;28;1168;-62
2021/05/30 00:18:56;;;;;;;6.40;4.20;;;;;;;;;;345290;28;1086;-63
2021/05/30 00:19:08;;;;;;;5.95;4.10;;;;;;;;;;345202;28;1111;-62
2021/05/30 00:19:20;;;;;;;6.35;4.00;;;;;;;;;;345255;28;1956;-62
2021/05/30 00:19:32;;;;;;;6.65;3.80;;;;;;;;;;345355;28;1219;-64
2021/05/30 00:19:45;;;;;;;6.07;3.42;;;;;;;;;;345408;28;1221;-62
2021/05/30 00:19:57;;;;;;;4.80;3.50;;;;;;;;;;345294;28;1094;-63
2021/05/30 00:20:10;;;;;;;4.60;3.65;;;;;;;;;;345404;28;1046;-63
2021/05/30 00:20:22;;;;;;;6.00;4.10;;;;;;;;;;345276;28;1086;-63
2021/05/30 00:20:34;;;;;;;7.05;4.57;;;;;;;;;;343880;28;1309;-62
2021/05/30 00:20:46;;;;;;;8.10;4.57;;;;;;;;;;342580;28;1015;-63
2021/05/30 00:20:58;;;;;;;8.65;4.45;;;;;;;;;;342627;28;1101;-63
2021/05/30 00:21:11;;;;;;;7.78;4.32;;;;;;;;;;342509;28;1133;-62
2021/05/30 00:21:23;;;;;;;7.22;4.43;;;;;;;;;;342586;28;1066;-64
2021/05/30 00:21:35;;;;;;;6.75;4.50;;;;;;;;;;342474;28;1090;-63
2021/05/30 00:21:47;;;;;;;6.63;4.50;;;;;;;;;;342581;28;1059;-62
2021/05/30 00:21:59;;;;;;;7.10;4.47;;;;;;;;;;342353;28;1086;-64
2021/05/30 00:22:12;;;;;;;6.88;4.18;;;;;;;;;;342392;28;1648;-62
2021/05/30 00:22:24;;;;;;;7.05;4.10;;;;;;;;;;342475;28;1177;-63
2021/05/30 00:22:36;;;;;;;8.10;4.28;;;;;;;;;;343096;28;1074;-63
2021/05/30 00:22:48;;;;;;;9.90;4.57;;;;;;;;;;344674;28;990;-62
2021/05/30 00:23:00;;;;;;;8.60;4.50;;;;;;;;;;345138;28;1130;-66
2021/05/30 00:23:13;;;;;;;8.48;4.32;;;;;;;;;;345345;28;1160;-63
2021/05/30 00:23:25;;;;;;;8.10;4.20;;;;;;;;;;345230;28;1094;-63
2021/05/30 00:23:37;;;;;;;7.53;4.15;;;;;;;;;;345248;28;2056;-63
2021/05/30 00:23:49;;;;;;;9.40;4.28;;;;;;;;;;345271;28;1332;-64
2021/05/30 00:24:01;;;;;;;8.63;4.03;;;;;;;;;;345300;28;1102;-62
2021/05/30 00:24:13;;;;;;;6.05;3.90;;;;;;;;;;345351;28;1153;-62
2021/05/30 00:24:26;;;;;;;6.63;4.20;;;;;;;;;;345174;28;1222;-66
2021/05/30 00:24:38;;;;;;;7.03;4.35;;;;;;;;;;345357;28;1106;-62
2021/05/30 00:24:50;;;;;;;6.50;4.28;;;;;;;;;;345155;28;1387;-62
2021/05/30 00:25:03;;;;;;;5.55;3.80;;;;;;;;;;346376;28;1173;-62
2021/05/30 00:25:15;;;;;;;5.03;3.60;;;;;;;;;;346443;28;1126;-64
2021/05/30 00:25:27;;;;;;;5.93;3.92;;;;;;;;;;346580;28;1278;-63
2021/05/30 00:25:39;;;;;;;6.25;4.05;;;;;;;;;;346460;28;1138;-62
2021/05/30 00:25:53;;;;;;;6.32;3.97;;;;;;;;;;345366;28;39823;-65
2021/05/30 00:26:05;;;;;;;6.28;3.83;;;;;;;;;;346578;28;1295;-62
2021/05/30 00:26:18;;;;;;;5.82;3.60;;;;;;;;;;346615;28;1042;-62
2021/05/30 00:26:30;;;;;;;5.63;3.60;;;;;;;;;;345298;28;1135;-61
2021/05/30 00:26:42;;;;;;;6.55;3.75;;;;;;;;;;345212;28;1214;-61
2021/05/30 00:26:54;;;;;;;6.76;4.14;;;;;;;;;;345125;28;1086;-62
2021/05/30 00:27:06;;;;;;;7.55;4.28;;;;;;;;;;344147;28;1007;-62
2021/05/30 00:27:18;;;;;;;6.90;4.00;;;;;;;;;;343846;28;1071;-62
2021/05/30 00:27:32;;;;;;;6.15;4.05;;;;;;;;;;343966;28;987;-62
2021/05/30 00:27:44;;;;;;;7.05;4.03;;;;;;;;;;343195;28;16913;-62
2021/05/30 00:27:57;;;;;;;7.65;4.28;;;;;;;;;;343981;28;1058;-62
2021/05/30 00:28:10;;;;;;;6.88;4.20;;;;;;;;;;343866;28;1212;-62
2021/05/30 00:28:22;;;;;;;4.88;3.92;;;;;;;;;;344058;28;1286;-62
2021/05/30 00:28:34;;;;;;;4.32;3.63;;;;;;;;;;343891;28;1052;-62
2021/05/30 00:28:46;;;;;;;5.50;3.70;;;;;;;;;;343870;28;1073;-62
2021/05/30 00:28:58;;;;;;;6.85;3.90;;;;;;;;;;343999;28;1852;-63
2021/05/30 00:29:11;;;;;;;7.28;3.88;;;;;;;;;;344174;28;1887;-62
2021/05/30 00:29:23;;;;;;;5.40;3.58;;;;;;;;;;344040;28;1034;-63
2021/05/30 00:29:35;;;;;;;5.44;3.46;;;;;;;;;;343839;28;1153;-62
2021/05/30 00:29:47;;;;;;;6.30;3.70;;;;;;;;;;343920;28;1081;-62
2021/05/30 00:30:00;;;;;;;6.43;3.72;;;;;;;;;;344678;28;1466;-63
2021/05/30 00:30:12;;;;;;;5.45;3.70;;;;;;;;;;344304;28;1650;-62
2021/05/30 00:30:25;;;;;;;5.47;3.70;;;;;;;;;;345295;28;1286;-62
2021/05/30 00:30:37;;;;;;;4.57;3.50;;;;;;;;;;345203;28;1118;-62
2021/05/30 00:30:50;;;;;;;6.03;3.92;;;;;;;;;;345239;28;1991;-62
2021/05/30 00:31:02;;;;;;;6.85;4.05;;;;;;;;;;345254;28;1962;-61
2021/05/30 00:31:14;;;;;;;6.65;3.90;;;;;;;;;;345080;28;1019;-61
2021/05/30 00:31:26;;;;;;;6.13;3.83;;;;;;;;;;345123;28;1091;-63
2021/05/30 00:31:39;;;;;;;4.95;3.80;;;;;;;;;;345121;28;1285;-62
2021/05/30 00:31:52;;;;;;;4.93;3.90;;;;;;;;;;345160;28;1073;-62
2021/05/30 00:32:04;;;;;;;4.63;3.80;;;;;;;;;;345290;28;1093;-62
2021/05/30 00:32:16;;;;;;;4.28;3.72;;;;;;;;;;345178;28;1046;-63
2021/05/30 00:32:28;;;;;;;5.35;3.60;;;;;;;;;;345100;28;1097;-62
2021/05/30 00:32:41;;;;;;;5.70;3.78;;;;;;;;;;343575;28;1095;-62
2021/05/30 00:32:53;;;;;;;4.90;3.92;;;;;;;;;;344001;28;979;-61
2021/05/30 00:33:05;;;;;;;4.97;3.90;;;;;;;;;;344008;28;1197;-62
2021/05/30 00:33:17;;;;;;;4.55;3.67;;;;;;;;;;343880;28;1146;-62
2021/05/30 00:33:29;;;;;;;4.68;3.70;;;;;;;;;;343765;28;1205;-63
2021/05/30 00:33:41;;;;;;;5.32;3.72;;;;;;;;;;343712;28;1067;-62
2021/05/30 00:33:53;;;;;;;5.45;3.72;;;;;;;;;;343852;28;1094;-62
2021/05/30 00:34:06;;;;;;;4.90;3.78;;;;;;;;;;343962;28;1042;-61
2021/05/30 00:34:18;;;;;;;5.25;3.63;;;;;;;;;;343820;28;996;-63
2021/05/30 00:34:30;;;;;;;6.00;3.70;;;;;;;;;;342428;28;1166;-62
2021/05/30 00:34:42;;;;;;;6.10;3.90;;;;;;;;;;341887;28;1043;-62
2021/05/30 00:34:54;;;;;;;8.43;4.10;;;;;;;;;;342753;28;1086;-61
2021/05/30 00:35:06;;;;;;;8.65;4.55;;;;;;;;;;342561;28;1019;-63
2021/05/30 00:35:19;;;;;;;8.57;5.00;;;;;;;;;;342613;28;2044;-62
2021/05/30 00:35:31;;;;;;;8.20;5.20;;;;;;;;;;342511;28;1202;-63
2021/05/30 00:35:43;;;;;;;6.75;4.85;;;;;;;;;;342337;28;1099;-62
2021/05/30 00:35:55;;;;;;;6.60;4.63;;;;;;;;;;342635;28;1157;-63
2021/05/30 00:36:07;;;;;;;7.05;4.60;;;;;;;;;;342581;28;1169;-62
2021/05/30 00:36:19;;;;;;;7.53;4.70;;;;;;;;;;342576;28;1107;-62
2021/05/30 00:36:31;;;;;;;6.97;4.60;;;;;;;;;;343072;28;1134;-63
2021/05/30 00:36:43;;;;;;;7.36;4.80;;;;;;;;;;344588;28;1153;-62
2021/05/30 00:36:55;;;;;;;7.15;4.78;;;;;;;;;;345255;28;1083;-62
2021/05/30 00:37:07;;;;;;;7.68;4.85;;;;;;;;;;343757;28;1038;-63
2021/05/30 00:37:20;;;;;;;7.40;4.75;;;;;;;;;;342337;28;1083;-65
2021/05/30 00:37:32;;;;;;;7.53;4.63;;;;;;;;;;342518;28;1054;-65
2021/05/30 00:37:44;;;;;;;7.57;4.88;;;;;;;;;;342619;28;1122;-65
2021/05/30 00:37:57;;;;;;;7.80;5.20;;;;;;;;;;342502;28;1202;-63
2021/05/30 00:38:09;;;;;;;7.78;5.10;;;;;;;;;;342413;28;1198;-64
2021/05/30 00:38:21;;;;;;;7.90;5.07;;;;;;;;;;342567;28;1074;-63
2021/05/30 00:38:34;;;;;;;7.45;5.20;;;;;;;;;;342649;28;995;-65
2021/05/30 00:38:46;;;;;;;7.50;5.18;;;;;;;;;;342525;28;1134;-63
2021/05/30 00:38:58;;;;;;;7.78;5.05;;;;;;;;;;342510;28;1166;-66
2021/05/30 00:39:10;;;;;;;8.00;4.82;;;;;;;;;;343276;28;1137;-64
2021/05/30 00:39:22;;;;;;;7.65;4.80;;;;;;;;;;344910;28;1071;-63
2021/05/30 00:39:34;;;;;;;7.32;5.00;;;;;;;;;;345130;28;1919;-64
2021/05/30 00:39:46;;;;;;;6.57;4.85;;;;;;;;;;346076;28;1855;-63
2021/05/30 00:39:59;;;;;;;6.55;5.05;;;;;;;;;;345196;28;1073;-64
2021/05/30 00:40:11;;;;;;;7.70;5.25;;;;;;;;;;345088;28;1176;-64
2021/05/30 00:40:23;;;;;;;8.85;5.25;;;;;;;;;;345385;28;1193;-63
2021/05/30 00:40:35;;;;;;;8.20;4.97;;;;;;;;;;345469;28;1157;-63
2021/05/30 00:40:47;;;;;;;7.75;4.90;;;;;;;;;;345308;28;1204;-63
2021/05/30 00:40:59;;;;;;;8.52;5.15;;;;;;;;;;345242;28;1070;-64
2021/05/30 00:41:11;;;;;;;10.32;5.45;;;;;;;;;;343740;28;1134;-63
2021/05/30 00:41:24;;;;;;;10.15;5.50;;;;;;;;;;343912;28;1112;-63
2021/05/30 00:41:36;;;;;;;8.57;5.53;;;;;;;;;;344032;28;1054;-65
2021/05/30 00:41:48;;;;;;;8.75;5.35;;;;;;;;;;343744;28;1116;-65
2021/05/30 00:42:01;;;;;;;8.25;5.15;;;;;;;;;;343791;28;1094;-64
2021/05/30 00:42:13;;;;;;;7.13;4.95;;;;;;;;;;344184;28;1097;-65
2021/05/30 00:42:25;;;;;;;6.88;4.95;;;;;;;;;;343907;28;971;-62
2021/05/30 00:42:37;;;;;;;8.05;5.20;;;;;;;;;;343910;28;1165;-65
2021/05/30 00:42:49;;;;;;;7.97;4.90;;;;;;;;;;343874;28;1280;-62
2021/05/30 00:43:01;;;;;;;7.63;4.60;;;;;;;;;;343833;28;1050;-64
2021/05/30 00:43:14;;;;;;;7.78;4.65;;;;;;;;;;344636;28;1003;-63
2021/05/30 00:43:26;;;;;;;7.43;4.75;;;;;;;;;;345298;28;1082;-63
2021/05/30 00:43:45;;;;;;;7.95;5.05;;;;;;;;;;345195;28;1186;-64
2021/05/30 00:43:57;;;;;;;7.07;5.10;;;;;;;;;;343097;28;63549;-65
2021/05/30 00:44:19;;;;;;;7.00;4.88;;;;;;;;;;345251;28;1080;-64
2021/05/30 00:44:32;;;;;;;7.50;4.40;;;;;;;;;;343192;28;62592;-63
2021/05/30 00:44:44;;;;;;;8.23;4.50;;;;;;;;;;345264;28;1243;-65
2021/05/30 00:44:56;;;;;;;9.07;4.40;;;;;;;;;;343586;28;1030;-62
2021/05/30 00:45:10;;;;;;;9.48;4.45;;;;;;;;;;343880;28;1212;-64
2021/05/30 00:45:22;;;;;;;7.35;4.57;;;;;;;;;;342476;28;39977;-64
2021/05/30 00:45:35;;;;;;;6.72;4.70;;;;;;;;;;343709;28;1209;-65
2021/05/30 00:45:48;;;;;;;6.43;4.55;;;;;;;;;;343812;28;1109;-65
2021/05/30 00:46:00;;;;;;;5.38;4.45;;;;;;;;;;343136;28;17871;-65
2021/05/30 00:46:13;;;;;;;5.10;4.28;;;;;;;;;;343642;28;1038;-63
2021/05/30 00:46:26;;;;;;;4.85;4.30;;;;;;;;;;343862;28;1183;-63
2021/05/30 00:46:38;;;;;;;5.32;4.40;;;;;;;;;;344090;28;1081;-64
2021/05/30 00:46:54;;;;;;;6.07;4.50;;;;;;;;;;343881;28;1173;-63
2021/05/30 00:47:06;;;;;;;7.90;4.35;;;;;;;;;;341751;28;63041;-63
2021/05/30 00:47:19;;;;;;;7.72;4.13;;;;;;;;;;343967;28;1095;-65
2021/05/30 00:47:31;;;;;;;7.15;4.05;;;;;;;;;;343765;28;988;-64
2021/05/30 00:47:43;;;;;;;7.07;4.13;;;;;;;;;;343814;28;1406;-64
2021/05/30 00:47:56;;;;;;;7.13;4.40;;;;;;;;;;343973;28;1164;-63
2021/05/30 00:48:08;;;;;;;6.38;4.53;;;;;;;;;;343927;28;1014;-65
2021/05/30 00:48:20;;;;;;;6.07;4.47;;;;;;;;;;343974;28;984;-63
2021/05/30 00:48:32;;;;;;;5.55;4.40;;;;;;;;;;343831;28;1086;-63
2021/05/30 00:48:45;;;;;;;5.45;4.20;;;;;;;;;;343778;28;1188;-65
2021/05/30 00:48:57;;;;;;;6.00;4.40;;;;;;;;;;343975;28;1316;-63
2021/05/30 00:49:12;;;;;;;5.72;4.40;;;;;;;;;;342547;28;39670;-63
2021/05/30 00:49:25;;;;;;;6.15;4.45;;;;;;;;;;343802;28;1110;-64
2021/05/30 00:49:37;;;;;;;6.20;4.50;;;;;;;;;;343939;28;1275;-62
2021/05/30 00:49:49;;;;;;;7.38;4.60;;;;;;;;;;343987;28;1121;-63
2021/05/30 00:50:01;;;;;;;7.50;4.75;;;;;;;;;;345284;28;1157;-62
2021/05/30 00:50:13;;;;;;;7.75;4.68;;;;;;;;;;345174;28;1872;-64
2021/05/30 00:50:26;;;;;;;7.30;4.70;;;;;;;;;;344560;28;1919;-64
2021/05/30 00:50:38;;;;;;;7.85;4.95;;;;;;;;;;343746;28;995;-65
2021/05/30 00:50:50;;;;;;;6.25;4.82;;;;;;;;;;343755;28;1157;-64
2021/05/30 00:51:02;;;;;;;5.72;4.65;;;;;;;;;;344007;28;1002;-65
2021/05/30 00:51:15;;;;;;;6.65;4.50;;;;;;;;;;343821;28;1176;-63
2021/05/30 00:51:27;;;;;;;8.32;4.65;;;;;;;;;;343563;28;1168;-65
2021/05/30 00:51:39;;;;;;;6.88;4.60;;;;;;;;;;343897;28;1137;-65
2021/05/30 00:51:52;;;;;;;6.25;4.53;;;;;;;;;;343997;28;1122;-63
2021/05/30 00:52:04;;;;;;;6.30;4.65;;;;;;;;;;343657;28;1137;-65
2021/05/30 00:52:17;;;;;;;6.97;4.90;;;;;;;;;;343572;28;1248;-64
2021/05/30 00:52:29;;;;;;;7.15;4.90;;;;;;;;;;344818;28;1082;-63
2021/05/30 00:52:42;;;;;;;6.47;4.80;;;;;;;;;;345249;28;991;-63
2021/05/30 00:52:54;;;;;;;6.20;4.47;;;;;;;;;;345232;28;1088;-63
2021/05/30 00:53:06;;;;;;;6.15;4.63;;;;;;;;;;345164;28;1054;-63
2021/05/30 00:53:18;;;;;;;6.03;4.63;;;;;;;;;;345167;28;1162;-64
2021/05/30 00:53:31;;;;;;;7.25;5.00;;;;;;;;;;345230;28;1104;-63
2021/05/30 00:53:43;;;;;;;7.88;4.95;;;;;;;;;;345142;28;1033;-63
2021/05/30 00:53:55;;;;;;;7.28;5.13;;;;;;;;;;345192;28;1075;-64
2021/05/30 00:54:08;;;;;;;6.93;5.20;;;;;;;;;;345099;28;1085;-65
2021/05/30 00:54:20;;;;;;;6.50;5.05;;;;;;;;;;345336;28;1070;-63
2021/05/30 00:54:35;;;;;;;6.50;4.80;;;;;;;;;;343860;28;978;-63
2021/05/30 00:54:47;;;;;;;6.45;4.70;;;;;;;;;;342489;28;41439;-62
2021/05/30 00:55:01;;;;;;;7.15;4.88;;;;;;;;;;343941;28;1018;-63
2021/05/30 00:55:13;;;;;;;6.75;4.90;;;;;;;;;;343387;28;16695;-63
2021/05/30 00:55:25;;;;;;;8.40;5.10;;;;;;;;;;343798;28;1161;-63
2021/05/30 00:55:37;;;;;;;8.38;4.95;;;;;;;;;;343958;28;1167;-63
2021/05/30 00:55:49;;;;;;;7.35;4.90;;;;;;;;;;343757;28;1239;-62
2021/05/30 00:56:08;;;;;;;6.43;5.03;;;;;;;;;;343823;28;1114;-64
2021/05/30 00:56:20;;;;;;;6.85;5.20;;;;;;;;;;341699;28;62857;-63
2021/05/30 00:56:33;;;;;;;6.72;4.97;;;;;;;;;;344390;28;998;-63
2021/05/30 00:56:45;;;;;;;5.95;4.90;;;;;;;;;;345328;28;1063;-63
2021/05/30 00:56:57;;;;;;;5.72;4.82;;;;;;;;;;345217;28;1200;-63
2021/05/30 00:57:10;;;;;;;6.18;4.93;;;;;;;;;;345157;28;983;-63
2021/05/30 00:57:22;;;;;;;6.70;5.10;;;;;;;;;;345232;28;1118;-63
2021/05/30 00:57:34;;;;;;;5.93;5.10;;;;;;;;;;345152;28;1178;-63
2021/05/30 00:57:46;;;;;;;7.10;5.40;;;;;;;;;;345146;28;1165;-63
2021/05/30 00:57:59;;;;;;;7.65;5.40;;;;;;;;;;345031;28;1153;-63
2021/05/30 00:58:11;;;;;;;8.48;5.28;;;;;;;;;;343843;28;1095;-63
2021/05/30 00:58:23;;;;;;;7.70;5.00;;;;;;;;;;343897;28;1286;-63
2021/05/30 00:58:36;;;;;;;6.28;4.90;;;;;;;;;;342361;28;1200;-64
2021/05/30 00:58:49;;;;;;;6.50;4.95;;;;;;;;;;342432;28;1070;-63
2021/05/30 00:59:02;;;;;;;6.63;4.95;;;;;;;;;;342476;28;1158;-63
2021/05/30 00:59:15;;;;;;;6.18;5.20;;;;;;;;;;341756;28;17301;-64
2021/05/30 00:59:27;;;;;;;6.22;5.30;;;;;;;;;;342402;28;1175;-64
2021/05/30 00:59:40;;;;;;;7.03;5.32;;;;;;;;;;342378;28;1005;-63
2021/05/30 00:59:52;;;;;;;7.22;5.28;;;;;;;;;;342452;28;1027;-63
2021/05/30 01:00:06;;;;;;;7.13;5.03;;;;;;;;;;342461;28;1097;-63
2021/05/30 01:00:18;;;;;;;6.43;4.82;;;;;;;;;;343313;28;17099;-63
2021/05/30 01:00:30;;;;;;;6.03;4.90;;;;;;;;;;343881;28;1169;-63
2021/05/30 01:00:43;;;;;;;5.53;4.90;;;;;;;;;;345206;28;1064;-63
2021/05/30 01:00:55;;;;;;;5.80;5.20;;;;;;;;;;344857;28;1840;-63
2021/05/30 01:01:07;;;;;;;6.07;5.40;;;;;;;;;;345150;28;1931;-63
2021/05/30 01:01:19;;;;;;;6.18;5.20;;;;;;;;;;345522;28;1034;-63
2021/05/30 01:01:32;;;;;;;7.38;5.20;;;;;;;;;;345308;28;984;-65
2021/05/30 01:01:44;;;;;;;7.20;5.10;;;;;;;;;;345111;28;1164;-64
2021/05/30 01:01:56;;;;;;;7.00;5.03;;;;;;;;;;345200;28;993;-63
2021/05/30 01:02:08;;;;;;;5.82;4.97;;;;;;;;;;345141;28;1175;-63
2021/05/30 01:02:20;;;;;;;5.80;5.00;;;;;;;;;;345199;28;1078;-62
2021/05/30 01:02:32;;;;;;;6.40;5.20;;;;;;;;;;344913;28;1712;-63
2021/05/30 01:02:45;;;;;;;6.95;5.20;;;;;;;;;;345171;28;1042;-63
2021/05/30 01:02:57;;;;;;;7.97;5.18;;;;;;;;;;345316;28;1205;-63
2021/05/30 01:03:09;;;;;;;7.30;5.10;;;;;;;;;;345214;28;1137;-63
2021/05/30 01:03:21;;;;;;;7.28;5.38;;;;;;;;;;345098;28;1051;-64
2021/05/30 01:03:37;;;;;;;6.75;5.35;;;;;;;;;;345149;28;1053;-64
2021/05/30 01:03:49;;;;;;;6.45;5.38;;;;;;;;;;343172;28;62893;-63
2021/05/30 01:04:02;;;;;;;7.03;5.40;;;;;;;;;;343828;28;1038;-63
2021/05/30 01:04:14;;;;;;;7.93;5.30;;;;;;;;;;343873;28;1211;-63
2021/05/30 01:04:26;;;;;;;7.53;5.28;;;;;;;;;;343651;28;1066;-63
2021/05/30 01:04:39;;;;;;;7.13;5.10;;;;;;;;;;343783;28;1095;-63
2021/05/30 01:04:51;;;;;;;6.82;5.30;;;;;;;;;;343878;28;1190;-63
2021/05/30 01:05:04;;;;;;;7.45;5.55;;;;;;;;;;343884;28;1090;-63
2021/05/30 01:05:16;;;;;;;8.60;5.70;;;;;;;;;;343665;28;1034;-64
2021/05/30 01:05:28;;;;;;;8.20;5.50;;;;;;;;;;343853;28;1125;-64
2021/05/30 01:05:40;;;;;;;7.60;5.30;;;;;;;;;;343861;28;989;-62
2021/05/30 01:05:53;;;;;;;7.75;5.20;;;;;;;;;;343830;28;1126;-64
2021/05/30 01:06:06;;;;;;;7.55;5.43;;;;;;;;;;344747;28;1070;-64
2021/05/30 01:06:18;;;;;;;7.15;5.30;;;;;;;;;;345123;28;1071;-63
2021/05/30 01:06:30;;;;;;;6.88;5.25;;;;;;;;;;345179;28;1148;-63
2021/05/30 01:06:43;;;;;;;6.45;5.20;;;;;;;;;;345192;28;1103;-63
2021/05/30 01:06:57;;;;;;;6.50;5.30;;;;;;;;;;345104;28;1024;-63
2021/05/30 01:07:09;;;;;;;7.75;5.57;;;;;;;;;;344586;28;17118;-63
2021/05/30 01:07:21;;;;;;;8.57;5.38;;;;;;;;;;345192;28;1280;-65
2021/05/30 01:07:40;;;;;;;8.45;5.28;;;;;;;;;;345176;28;1039;-63
2021/05/30 01:07:53;;;;;;;6.78;5.20;;;;;;;;;;343056;28;62863;-65
2021/05/30 01:08:05;;;;;;;6.07;5.05;;;;;;;;;;345110;28;1173;-65
2021/05/30 01:08:26;;;;;;;6.72;5.18;;;;;;;;;;345298;28;1217;-66
2021/05/30 01:08:38;;;;;;;7.22;5.20;;;;;;;;;;343126;28;62766;-65
2021/05/30 01:08:50;;;;;;;7.82;5.22;;;;;;;;;;343849;28;1000;-66
2021/05/30 01:09:03;;;;;;;6.95;5.20;;;;;;;;;;343791;28;1063;-65
2021/05/30 01:09:15;;;;;;;8.07;5.20;;;;;;;;;;343737;28;1068;-65
2021/05/30 01:09:28;;;;;;;8.40;5.45;;;;;;;;;;344014;28;1130;-64
2021/05/30 01:09:40;;;;;;;8.13;5.43;;;;;;;;;;343703;28;1173;-65
2021/05/30 01:09:52;;;;;;;9.32;5.55;;;;;;;;;;343851;28;1169;-64
2021/05/30 01:10:13;;;;;;;10.32;5.57;;;;;;;;;;343721;28;1094;-65
2021/05/30 01:10:34;;;;;;;7.47;5.28;;;;;;;;;;341857;28;63512;-65
2021/05/30 01:10:47;;;;;;;6.78;5.43;;;;;;;;;;341863;28;63412;-65
2021/05/30 01:10:59;;;;;;;7.05;5.55;;;;;;;;;;343665;28;1157;-64
2021/05/30 01:11:15;;;;;;;8.25;5.32;;;;;;;;;;342593;28;1043;-65
2021/05/30 01:11:27;;;;;;;8.82;5.50;;;;;;;;;;340362;28;62696;-64
2021/05/30 01:11:45;;;;;;;8.32;5.45;;;;;;;;;;343496;28;1816;-65
2021/05/30 01:11:57;;;;;;;7.53;5.30;;;;;;;;;;341445;28;64068;-64
2021/05/30 01:12:09;;;;;;;7.00;5.30;;;;;;;;;;343320;28;1713;-66
2021/05/30 01:12:22;;;;;;;6.35;5.18;;;;;;;;;;343806;28;1095;-65
2021/05/30 01:12:34;;;;;;;6.85;5.30;;;;;;;;;;343718;28;1090;-66
2021/05/30 01:12:47;;;;;;;8.25;5.63;;;;;;;;;;343936;28;1027;-63
2021/05/30 01:12:59;;;;;;;8.40;5.80;;;;;;;;;;343645;28;996;-64
2021/05/30 01:13:12;;;;;;;8.68;5.68;;;;;;;;;;344369;28;1158;-64
2021/05/30 01:13:25;;;;;;;8.25;5.65;;;;;;;;;;345262;28;1122;-64
2021/05/30 01:13:37;;;;;;;8.38;5.82;;;;;;;;;;343875;28;1107;-66
2021/05/30 01:13:52;;;;;;;7.38;5.75;;;;;;;;;;343508;28;1274;-63
2021/05/30 01:14:05;;;;;;;6.32;5.43;;;;;;;;;;342585;28;40399;-68
2021/05/30 01:14:18;;;;;;;6.95;5.63;;;;;;;;;;343363;28;17086;-64
2021/05/30 01:14:31;;;;;;;7.72;5.70;;;;;;;;;;343824;28;1183;-65
2021/05/30 01:14:43;;;;;;;7.35;5.50;;;;;;;;;;343830;28;1099;-63
2021/05/30 01:14:55;;;;;;;6.97;5.57;;;;;;;;;;342421;28;1146;-67
2021/05/30 01:15:07;;;;;;;7.25;5.75;;;;;;;;;;342420;28;984;-64
2021/05/30 01:15:19;;;;;;;7.28;5.65;;;;;;;;;;342484;28;1315;-65
2021/05/30 01:15:32;;;;;;;6.13;5.50;;;;;;;;;;342597;28;1102;-65
2021/05/30 01:15:46;;;;;;;6.85;5.53;;;;;;;;;;343879;28;1153;-63
2021/05/30 01:15:58;;;;;;;7.25;5.90;;;;;;;;;;343599;28;1066;-65
2021/05/30 01:16:12;;;;;;;7.28;5.82;;;;;;;;;;343826;28;1114;-64
2021/05/30 01:16:25;;;;;;;7.07;5.57;;;;;;;;;;343222;28;16927;-63
2021/05/30 01:16:38;;;;;;;8.85;5.45;;;;;;;;;;343678;28;1206;-65
2021/05/30 01:16:50;;;;;;;8.80;5.50;;;;;;;;;;343861;28;1086;-64
2021/05/30 01:17:06;;;;;;;7.80;5.72;;;;;;;;;;343707;28;1279;-65
2021/05/30 01:17:19;;;;;;;7.80;5.80;;;;;;;;;;340415;28;63565;-63
2021/05/30 01:17:31;;;;;;;8.13;5.75;;;;;;;;;;342353;28;1305;-65
2021/05/30 01:17:43;;;;;;;8.93;5.82;;;;;;;;;;342965;28;1102;-65
2021/05/30 01:17:57;;;;;;;7.82;5.57;;;;;;;;;;344012;28;1157;-63
2021/05/30 01:18:09;;;;;;;6.30;5.43;;;;;;;;;;343861;28;1201;-64